Time;durP1;ratioP1;P1;durP2;ratioP2;P2;SDS_P1;SDS_P2;PMS_P1;PMS_P2;Temp;Humidity;BMP_temperature;BMP_pressure;BME280_temperature;BME280_humidity;BME280_pressure;Samples;Min_cycle;Max_cycle;Signal;HPM_P1;HPM_P2
2022/06/28 00:02:13;;;;;;;;;2.00;2.00;;;;;18.27;58.39;101509.69;5055650;28;45378;-68
2022/06/28 00:04:39;;;;;;;;;2.00;2.00;;;;;18.23;58.24;101507.34;5055326;28;45744;-66
2022/06/28 00:07:04;;;;;;;;;5.00;2.67;;;;;18.14;58.33;101491.88;5067716;27;45523;-61
2022/06/28 00:09:30;;;;;;;;;4.00;2.33;;;;;18.14;58.43;101500.81;5075475;27;46281;-63
2022/06/28 00:11:55;;;;;;;;;2.00;2.00;;;;;18.11;58.51;101495.66;5075631;27;45421;-66
2022/06/28 00:17:05;;;;;;;;;2.00;2.00;;;;;18.06;58.90;101496.94;5077557;27;45557;-61
2022/06/28 00:19:31;;;;;;;;;2.33;1.00;;;;;18.02;58.96;101496.31;5077276;28;46327;-67
2022/06/28 00:21:56;;;;;;;;;2.67;2.67;;;;;18.00;58.53;101492.88;5078473;27;45472;-67
2022/06/28 00:24:23;;;;;;;;;2.00;2.00;;;;;18.00;59.10;101492.88;5077565;27;45535;-69
2022/06/28 00:26:48;;;;;;;;;4.33;2.00;;;;;17.95;59.49;101493.19;5078572;28;45500;-69
2022/06/28 00:29:15;;;;;;;;;2.00;2.00;;;;;17.95;58.71;101489.63;5077098;28;46254;-66
2022/06/28 00:31:41;;;;;;;;;2.00;2.00;;;;;17.97;59.48;101495.78;5077386;27;45307;-65
2022/06/28 00:34:06;;;;;;;;;2.00;2.00;;;;;17.95;58.93;101495.88;5076571;28;45316;-64
2022/06/28 00:36:32;;;;;;;;;1.67;1.67;;;;;17.95;59.11;101490.50;5078898;27;45409;-65
2022/06/28 00:38:58;;;;;;;;;4.00;1.00;;;;;17.98;58.71;101492.13;5077923;27;45489;-66
2022/06/28 00:41:25;;;;;;;;;1.00;1.00;;;;;17.98;58.87;101495.69;5078113;27;45436;-66
2022/06/28 00:43:51;;;;;;;;;2.00;2.00;;;;;17.96;59.07;101491.34;5078359;27;45386;-69
2022/06/28 00:46:16;;;;;;;;;1.00;1.00;;;;;17.90;59.21;101498.06;5078109;27;45541;-66
2022/06/28 00:48:41;;;;;;;;;1.67;1.67;;;;;17.88;59.06;101481.16;5078539;27;45397;-69
2022/06/28 00:51:10;;;;;;;;;3.00;2.00;;;;;17.96;58.88;101483.28;5076927;27;45317;-68
2022/06/28 00:53:35;;;;;;;;;2.67;2.00;;;;;17.94;58.86;101487.91;5078955;27;45208;-66
2022/06/28 00:56:01;;;;;;;;;4.00;3.00;;;;;17.92;59.62;101484.50;5078282;27;45585;-66
2022/06/28 00:58:26;;;;;;;;;1.67;1.33;;;;;17.92;59.01;101482.66;5078522;27;46319;-64
2022/06/28 01:00:52;;;;;;;;;1.67;1.67;;;;;17.92;58.93;101484.50;5077360;27;45409;-68
2022/06/28 01:03:23;;;;;;;;;3.67;2.00;;;;;17.88;58.77;101477.63;5078340;27;45291;-67
2022/06/28 01:05:51;;;;;;;;;4.00;2.00;;;;;17.93;58.75;101476.28;5078500;27;45279;-64
2022/06/28 01:08:17;;;;;;;;;2.00;2.00;;;;;17.87;59.12;101476.75;5076094;28;45476;-66
2022/06/28 01:10:44;;;;;;;;;3.67;1.00;;;;;17.88;59.05;101486.56;5076548;28;45427;-66
2022/06/28 01:13:09;;;;;;;;;3.33;1.67;;;;;17.83;59.08;101482.44;5075955;27;45401;-66
2022/06/28 01:15:37;;;;;;;;;1.00;1.00;;;;;17.82;58.83;101478.03;5078055;27;45432;-66
2022/06/28 01:18:04;;;;;;;;;1.00;1.00;;;;;17.79;58.71;101472.91;5077647;27;45294;-64
2022/06/28 01:20:30;;;;;;;;;1.00;1.00;;;;;17.79;58.78;101472.91;5076110;28;45415;-67
2022/06/28 01:22:55;;;;;;;;;1.00;1.00;;;;;17.83;58.48;101482.44;5077735;28;45555;-66
2022/06/28 01:25:23;;;;;;;;;3.00;2.00;;;;;17.83;59.37;101475.25;5077806;27;45621;-69
2022/06/28 01:27:49;;;;;;;;;1.33;0.00;;;;;17.80;58.93;101480.00;5076350;27;46128;-70
2022/06/28 01:30:15;;;;;;;;;2.00;2.00;;;;;17.77;59.00;101483.78;5077519;27;45325;-70
2022/06/28 01:32:41;;;;;;;;;4.00;1.33;;;;;17.76;58.71;101475.81;5077717;27;45397;-69
2022/06/28 01:35:08;;;;;;;;;4.00;0.67;;;;;17.73;58.97;101479.59;5077997;27;45595;-69
2022/06/28 01:37:34;;;;;;;;;1.00;1.00;;;;;17.76;58.77;101479.34;5076267;27;45420;-70
2022/06/28 01:40:00;;;;;;;;;1.33;1.33;;;;;17.75;58.89;101490.25;5078577;27;45345;-69
2022/06/28 01:42:29;;;;;;;;;3.00;1.00;;;;;17.72;58.99;101488.63;5077579;28;45411;-65
2022/06/28 01:44:56;;;;;;;;;5.33;2.00;;;;;17.70;59.02;101485.16;5077701;27;45477;-64
2022/06/28 01:47:24;;;;;;;;;1.67;1.00;;;;;17.59;59.38;101485.94;5075239;27;47121;-61
2022/06/28 01:49:49;;;;;;;;;1.00;1.00;;;;;17.54;59.25;101481.81;5077240;28;45423;-63
2022/06/28 01:52:15;;;;;;;;;2.00;0.00;;;;;17.52;59.29;101473.88;5076680;27;45328;-67
2022/06/28 01:54:41;;;;;;;;;1.00;1.00;;;;;17.51;59.05;101479.34;5077639;27;45334;-67
2022/06/28 01:57:07;;;;;;;;;0.33;0.33;;;;;17.45;59.30;101485.16;5077300;27;45925;-67
2022/06/28 01:59:32;;;;;;;;;2.00;2.00;;;;;17.36;59.58;101481.31;5076831;27;45416;-64
2022/06/28 02:01:58;;;;;;;;;0.00;0.00;;;;;17.31;59.63;101465.47;5075337;27;45465;-68
2022/06/28 02:04:26;;;;;;;;;1.00;1.00;;;;;17.27;59.16;101461.28;5077334;27;45420;-70
2022/06/28 02:06:51;;;;;;;;;1.00;1.00;;;;;17.39;59.00;101475.72;5076237;27;45503;-66
2022/06/28 02:09:17;;;;;;;;;0.67;0.67;;;;;17.38;59.01;101474.00;5076130;27;45301;-68
2022/06/28 02:11:42;;;;;;;;;1.00;1.00;;;;;17.43;59.07;101474.50;5077214;27;45400;-67
2022/06/28 02:14:08;;;;;;;;;0.00;0.00;;;;;17.39;59.15;101464.94;5077713;27;45547;-66
2022/06/28 02:16:34;;;;;;;;;1.00;1.00;;;;;17.39;59.02;101470.34;5076806;28;45258;-69
2022/06/28 02:18:59;;;;;;;;;0.67;0.00;;;;;17.37;59.33;101466.91;5076853;27;45366;-68
2022/06/28 02:21:25;;;;;;;;;1.00;1.00;;;;;17.37;59.03;101469.59;5076169;27;45385;-70
2022/06/28 02:23:51;;;;;;;;;1.00;1.00;;;;;17.37;58.90;101462.38;5076096;27;45700;-67
2022/06/28 02:26:18;;;;;;;;;0.67;0.33;;;;;17.34;58.97;101457.22;5075689;27;45831;-65
2022/06/28 02:28:43;;;;;;;;;5.00;1.00;;;;;17.31;59.73;101467.31;5092507;27;45431;-65
2022/06/28 02:31:10;;;;;;;;;1.33;1.33;;;;;17.23;59.90;101465.19;5076310;27;45579;-66
2022/06/28 02:33:36;;;;;;;;;1.00;1.00;;;;;17.22;59.85;101462.59;5077102;27;45531;-65
2022/06/28 02:41:46;;;;;;;;;0.33;0.33;;;;;17.12;60.33;101469.59;5074560;28;45289;-62
2022/06/28 02:44:12;;;;;;;;;2.00;1.00;;;;;17.00;60.76;101463.22;5076356;27;45456;-63
2022/06/28 02:46:38;;;;;;;;;0.00;0.00;;;;;16.95;61.05;101470.75;5076938;28;45464;-66
2022/06/28 02:49:03;;;;;;;;;0.00;0.00;;;;;16.94;61.17;101469.03;5076500;27;45467;-66
2022/06/28 02:51:29;;;;;;;;;1.00;1.00;;;;;16.92;61.11;101471.78;5071423;27;45388;-66
2022/06/28 02:53:55;;;;;;;;;1.00;1.00;;;;;16.89;61.33;101474.69;5056380;28;45381;-68
2022/06/28 02:56:21;;;;;;;;;0.33;0.33;;;;;16.89;60.85;101477.38;5054555;28;47931;-68
2022/06/28 02:58:46;;;;;;;;;0.00;0.00;;;;;16.92;60.43;101471.78;5061876;27;45429;-62
2022/06/28 03:01:12;;;;;;;;;0.33;0.00;;;;;16.95;60.42;101466.25;5076567;27;45318;-66
2022/06/28 03:03:38;;;;;;;;;2.00;2.00;;;;;16.98;60.58;101470.53;5076081;27;45555;-63
2022/06/28 03:06:04;;;;;;;;;2.00;2.00;;;;;16.92;60.50;101465.56;5075420;27;45188;-64
2022/06/28 03:08:29;;;;;;;;;1.00;1.00;;;;;16.99;60.42;101473.13;5076321;27;45240;-61
2022/06/28 03:10:54;;;;;;;;;1.00;1.00;;;;;17.00;60.30;101472.16;5076374;27;45358;-64
2022/06/28 03:13:20;;;;;;;;;1.00;1.00;;;;;17.01;60.17;101473.88;5076716;27;45149;-62
2022/06/28 03:15:45;;;;;;;;;3.00;1.33;;;;;17.00;60.27;101458.72;5073814;27;45411;-65
2022/06/28 03:18:11;;;;;;;;;1.00;1.00;;;;;17.00;60.10;101458.72;5076417;27;45319;-66
2022/06/28 03:20:37;;;;;;;;;4.67;2.00;;;;;17.05;60.03;101485.25;5075198;27;45748;-65
2022/06/28 03:23:02;;;;;;;;;2.00;2.00;;;;;17.04;60.58;101479.03;5076400;27;45407;-65
2022/06/28 03:25:28;;;;;;;;;2.00;2.00;;;;;16.99;60.49;101466.88;5076135;27;45452;-65
2022/06/28 03:27:53;;;;;;;;;1.00;1.00;;;;;17.00;60.01;101469.47;5076017;27;45336;-65
2022/06/28 03:30:18;;;;;;;;;2.00;1.00;;;;;17.00;60.06;101464.09;5075595;27;45387;-63
2022/06/28 03:32:44;;;;;;;;;4.33;1.00;;;;;16.97;60.37;101463.44;5076329;27;45525;-65
2022/06/28 03:35:10;;;;;;;;;1.33;1.33;;;;;16.94;60.75;101461.84;5074804;27;45328;-63
2022/06/28 03:37:36;;;;;;;;;4.00;2.67;;;;;16.93;60.69;101468.19;5074947;28;45310;-68
2022/06/28 03:40:02;;;;;;;;;3.00;3.00;;;;;16.90;60.90;101473.75;5075226;27;45421;-67
2022/06/28 03:42:28;;;;;;;;;3.67;3.00;;;;;16.82;61.56;101465.34;5075995;27;45255;-67
2022/06/28 03:44:53;;;;;;;;;2.67;1.00;;;;;16.76;61.31;101472.00;5075366;28;45325;-69
2022/06/28 03:47:19;;;;;;;;;9.00;5.33;;;;;16.77;61.22;101473.72;5074672;28;45388;-67
2022/06/28 03:49:44;;;;;;;;;6.67;6.67;;;;;16.73;61.55;101474.03;5077522;27;45297;-64
2022/06/28 03:52:09;;;;;;;;;3.00;3.00;;;;;16.66;61.91;101470.00;5078470;28;45555;-69
2022/06/28 03:54:35;;;;;;;;;2.00;2.00;;;;;16.67;61.49;101477.13;5079038;27;45438;-69
2022/06/28 03:57:00;;;;;;;;;2.67;2.67;;;;;16.65;61.92;101479.03;5078605;27;45383;-67
2022/06/28 03:59:26;;;;;;;;;2.67;2.67;;;;;16.64;61.67;101488.91;5079205;27;45384;-68
2022/06/28 04:01:51;;;;;;;;;0.00;0.00;;;;;16.59;62.08;101482.13;5078253;27;45317;-66
2022/06/28 04:04:17;;;;;;;;;3.00;2.67;;;;;16.59;61.77;101487.50;5077164;27;46183;-67
2022/06/28 04:06:43;;;;;;;;;2.67;2.67;;;;;16.56;61.72;101485.03;5078936;27;45456;-63
2022/06/28 04:09:08;;;;;;;;;3.67;2.33;;;;;16.57;61.83;101487.59;5079304;27;45424;-67
2022/06/28 04:11:34;;;;;;;;;2.00;2.00;;;;;16.57;62.07;101486.75;5077910;28;45328;-64
2022/06/28 04:13:59;;;;;;;;;4.00;1.67;;;;;16.50;61.77;101484.47;5080796;27;47588;-63
2022/06/28 04:16:24;;;;;;;;;2.00;2.00;;;;;16.48;61.98;101486.38;5077349;27;45460;-62
2022/06/28 04:18:50;;;;;;;;;4.67;2.33;;;;;16.45;61.95;101472.31;5094758;27;45431;-63
2022/06/28 04:21:17;;;;;;;;;1.00;1.00;;;;;16.46;61.85;101482.94;5077926;27;45518;-69
2022/06/28 04:23:43;;;;;;;;;4.33;3.00;;;;;16.49;61.53;101482.75;5078692;27;45456;-66
2022/06/28 04:26:09;;;;;;;;;3.00;2.67;;;;;16.52;61.36;101482.53;5078634;27;45238;-67
2022/06/28 04:28:35;;;;;;;;;2.00;2.00;;;;;16.59;61.16;101490.19;5078695;27;45245;-67
2022/06/28 04:31:01;;;;;;;;;1.00;1.00;;;;;16.64;60.70;101485.34;5078738;27;45284;-66
2022/06/28 04:33:27;;;;;;;;;2.00;2.00;;;;;16.67;60.66;101490.53;5078378;27;45368;-67
2022/06/28 04:35:52;;;;;;;;;3.00;1.00;;;;;16.70;60.50;101493.06;5078327;27;45230;-70
2022/06/28 04:38:18;;;;;;;;;1.67;1.67;;;;;16.73;60.59;101500.91;5077595;28;45442;-66
2022/06/28 04:40:43;;;;;;;;;1.00;1.00;;;;;16.72;60.30;101488.44;5077959;27;45446;-62
2022/06/28 04:43:09;;;;;;;;;1.00;1.00;;;;;16.73;60.37;101493.69;5078093;27;45396;-64
2022/06/28 04:45:34;;;;;;;;;3.00;1.33;;;;;16.74;60.30;101500.78;5078535;27;45311;-65
2022/06/28 04:48:00;;;;;;;;;2.00;2.00;;;;;16.74;60.26;101502.63;5078428;27;45797;-66
2022/06/28 04:50:25;;;;;;;;;1.00;1.00;;;;;16.77;59.97;101495.19;5078463;27;45562;-60
2022/06/28 04:52:51;;;;;;;;;2.00;1.00;;;;;16.76;59.96;101489.94;5076151;27;47751;-65
2022/06/28 04:55:17;;;;;;;;;1.00;1.00;;;;;16.83;59.69;101498.47;5078385;27;45223;-60
2022/06/28 04:57:43;;;;;;;;;2.00;2.00;;;;;16.87;59.65;101499.97;5077910;27;45268;-63
2022/06/28 05:00:10;;;;;;;;;2.00;2.00;;;;;16.89;59.58;101506.94;5076903;27;45317;-66
2022/06/28 05:02:36;;;;;;;;;1.00;1.00;;;;;16.84;59.27;101495.66;5077213;27;46015;-67
2022/06/28 05:05:06;;;;;;;;;4.00;2.00;;;;;16.91;59.48;101496.09;5076937;27;45372;-65
2022/06/28 05:07:32;;;;;;;;;2.67;1.67;;;;;16.97;59.06;101504.59;5078244;27;45428;-70
2022/06/28 05:09:58;;;;;;;;;2.00;2.00;;;;;17.03;59.00;101506.88;5078091;27;45420;-62
2022/06/28 05:12:24;;;;;;;;;3.00;1.33;;;;;17.03;59.13;101509.56;5077430;27;45303;-60
2022/06/28 05:14:49;;;;;;;;;1.33;1.00;;;;;17.06;58.59;101512.06;5077038;27;45308;-69
2022/06/28 05:17:14;;;;;;;;;1.33;1.33;;;;;17.10;58.50;101504.63;5077029;27;45251;-66
2022/06/28 05:19:40;;;;;;;;;2.67;1.33;;;;;17.10;58.34;101501.94;5077792;27;45596;-70
2022/06/28 05:22:08;;;;;;;;;3.00;3.00;;;;;17.10;58.44;101508.19;5073916;27;45339;-66
2022/06/28 05:24:33;;;;;;;;;3.00;1.67;;;;;17.09;58.33;101511.84;5077275;27;45354;-66
2022/06/28 05:26:59;;;;;;;;;3.00;3.00;;;;;17.08;57.86;101511.94;5077243;27;46650;-66
2022/06/28 05:29:24;;;;;;;;;2.00;2.00;;;;;17.16;57.79;101509.56;5075489;27;45399;-70
2022/06/28 05:31:49;;;;;;;;;2.00;2.00;;;;;17.22;57.66;101511.00;5109858;27;47943;-66
2022/06/28 05:34:15;;;;;;;;;4.67;1.67;;;;;17.25;57.81;101513.47;5075334;27;45373;-69
2022/06/28 05:36:41;;;;;;;;;2.33;2.33;;;;;17.31;57.83;101504.94;5076164;27;45495;-66
2022/06/28 05:39:08;;;;;;;;;4.00;2.33;;;;;17.37;57.16;101501.84;5109923;27;45656;-67
2022/06/28 05:41:33;;;;;;;;;2.00;2.00;;;;;17.42;56.83;101499.69;5076369;27;46704;-65
2022/06/28 05:43:59;;;;;;;;;1.33;1.33;;;;;17.45;56.57;101494.13;5076437;27;45402;-61
2022/06/28 05:46:28;;;;;;;;;5.33;2.00;;;;;17.48;56.53;101491.19;5075458;27;45238;-62
2022/06/28 05:48:53;;;;;;;;;2.00;2.00;;;;;17.51;56.52;101493.66;5061920;27;46131;-62
2022/06/28 05:51:19;;;;;;;;;4.67;4.33;;;;;17.52;56.03;101495.38;5075410;27;46359;-66
2022/06/28 05:53:44;;;;;;;;;2.00;2.00;;;;;17.59;56.29;101490.44;5074713;27;46168;-64
2022/06/28 05:56:10;;;;;;;;;4.67;4.67;;;;;17.66;56.29;101484.50;5072872;27;45603;-64
2022/06/28 05:58:35;;;;;;;;;4.33;4.33;;;;;17.69;55.41;101473.53;5073561;27;45320;-61
2022/06/28 06:01:00;;;;;;;;;2.33;1.67;;;;;17.77;55.11;101485.59;5073235;27;45743;-62
2022/06/28 06:03:26;;;;;;;;;3.67;3.00;;;;;17.81;55.25;101481.72;5076959;28;45397;-69
2022/06/28 06:05:52;;;;;;;;;1.33;1.33;;;;;17.83;54.62;101477.94;5074856;27;45544;-70
2022/06/28 06:08:17;;;;;;;;;1.00;1.00;;;;;17.83;54.60;101485.16;5076886;27;45538;-66
2022/06/28 06:10:42;;;;;;;;;2.00;2.00;;;;;17.86;54.43;101480.44;5073851;27;46419;-69
2022/06/28 06:13:08;;;;;;;;;2.00;1.00;;;;;17.89;54.27;101485.56;5074711;27;45912;-65
2022/06/28 06:15:33;;;;;;;;;2.00;2.00;;;;;17.95;55.78;101489.63;5077095;27;45393;-64
2022/06/28 06:17:59;;;;;;;;;5.33;2.00;;;;;18.00;54.59;101482.09;5075806;27;45223;-60
2022/06/28 06:20:25;;;;;;;;;2.67;1.67;;;;;18.03;55.39;101481.88;5076292;27;46134;-60
2022/06/28 06:22:50;;;;;;;;;2.00;2.00;;;;;18.04;54.82;101478.22;5075678;27;45386;-60
2022/06/28 06:25:16;;;;;;;;;3.00;2.00;;;;;18.04;55.21;101483.59;5074635;27;45767;-62
2022/06/28 06:27:42;;;;;;;;;2.00;2.00;;;;;18.09;56.21;101484.09;5074161;27;45468;-65
2022/06/28 06:30:08;;;;;;;;;4.00;4.00;;;;;18.14;55.10;101484.66;5074562;27;45472;-66
2022/06/28 06:32:34;;;;;;;;;3.33;2.00;;;;;18.16;54.05;101487.22;5075555;27;45535;-65
2022/06/28 06:34:59;;;;;;;;;1.67;1.67;;;;;18.14;54.41;101484.66;5075114;27;45380;-66
2022/06/28 06:37:25;;;;;;;;;1.00;1.00;;;;;18.11;55.14;101463.34;5073879;28;45926;-64
2022/06/28 06:39:51;;;;;;;;;0.00;0.00;;;;;18.16;54.30;101466.53;5074341;28;45884;-66
2022/06/28 06:42:16;;;;;;;;;2.00;2.00;;;;;18.15;54.44;101469.34;5076403;27;45457;-67
2022/06/28 06:44:41;;;;;;;;;3.00;1.00;;;;;18.20;54.38;101457.25;5074683;27;45403;-66
2022/06/28 06:47:07;;;;;;;;;2.67;2.00;;;;;18.21;54.40;101464.34;5058280;28;45476;-66
2022/06/28 06:49:33;;;;;;;;;1.00;1.00;;;;;18.27;53.47;101466.59;5073927;28;46418;-65
2022/06/28 06:51:58;;;;;;;;;2.00;2.00;;;;;18.28;53.09;101462.09;5067887;27;45382;-65
2022/06/28 06:54:23;;;;;;;;;1.00;1.00;;;;;18.31;53.34;101461.84;5074500;27;45670;-68
2022/06/28 06:56:49;;;;;;;;;0.00;0.00;;;;;18.38;53.06;101470.34;5076179;27;45568;-65
2022/06/28 06:59:16;;;;;;;;;2.00;0.00;;;;;18.40;52.16;101468.38;5073438;27;46642;-64
2022/06/28 07:01:42;;;;;;;;;2.00;1.00;;;;;18.35;51.68;101471.41;5074716;27;45253;-53
2022/06/28 07:04:08;;;;;;;;;3.00;1.00;;;;;18.37;51.92;101460.53;5063866;27;45848;-54
2022/06/28 07:06:34;;;;;;;;;3.00;2.00;;;;;18.39;51.62;101451.38;5067686;28;46389;-50
2022/06/28 07:09:01;;;;;;;;;0.67;0.67;;;;;18.40;51.62;101454.91;5073316;27;46348;-53
2022/06/28 07:11:26;;;;;;;;;5.00;2.67;;;;;18.47;51.60;101450.78;5074332;27;45440;-50
2022/06/28 07:13:52;;;;;;;;;2.33;2.33;;;;;18.46;51.49;101446.38;5073784;27;45328;-54
2022/06/28 07:16:17;;;;;;;;;6.33;6.33;;;;;18.46;51.51;101452.59;5066213;27;45935;-54
2022/06/28 07:18:43;;;;;;;;;1.00;1.00;;;;;18.53;51.63;101444.94;5063404;27;45527;-50
2022/06/28 07:21:10;;;;;;;;;3.67;3.00;;;;;18.59;51.66;101441.75;5071783;27;45457;-51
2022/06/28 07:23:35;;;;;;;;;4.33;3.67;;;;;18.64;51.36;101434.25;5069857;27;45628;-54
2022/06/28 07:26:01;;;;;;;;;6.00;4.67;;;;;18.71;51.12;101430.09;5068314;28;45464;-52
2022/06/28 07:28:26;;;;;;;;;8.33;3.00;;;;;18.79;51.05;101434.91;5083504;27;45403;-56
2022/06/28 07:30:52;;;;;;;;;2.33;1.00;;;;;18.79;51.00;101432.19;5068338;27;45860;-53
2022/06/28 07:33:18;;;;;;;;;1.67;1.67;;;;;18.81;50.97;101425.72;5079066;27;45460;-54
2022/06/28 07:35:44;;;;;;;;;6.00;3.00;;;;;18.85;51.08;101427.19;5077461;27;45405;-51
2022/06/28 07:38:10;;;;;;;;;4.00;4.00;;;;;18.90;51.04;101418.75;5090845;27;45494;-50
2022/06/28 07:40:36;;;;;;;;;2.00;2.00;;;;;18.95;50.73;101421.94;5076908;27;45341;-53
2022/06/28 07:43:02;;;;;;;;;1.00;1.00;;;;;18.99;51.00;101417.16;5075399;27;45447;-52
2022/06/28 07:45:27;;;;;;;;;1.33;1.33;;;;;19.05;51.44;101414.00;5079402;27;45325;-50
2022/06/28 07:47:53;;;;;;;;;2.00;2.00;;;;;19.10;50.99;101414.47;5076689;27;45714;-51
2022/06/28 07:53:05;;;;;;;;;1.00;1.00;;;;;19.18;50.91;101411.19;5075115;27;45862;-52
2022/06/28 07:55:31;;;;;;;;;4.00;2.33;;;;;19.20;50.85;101403.84;5074705;27;45594;-53
2022/06/28 07:57:58;;;;;;;;;1.50;1.50;;;;;19.27;50.71;101405.03;5075836;28;48584;-49
2022/06/28 08:00:24;;;;;;;;;4.33;3.00;;;;;19.33;50.17;101397.34;5077714;28;45497;-53
2022/06/28 08:02:50;;;;;;;;;2.67;2.67;;;;;19.40;50.55;101395.00;5094164;27;45667;-53
2022/06/28 08:05:16;;;;;;;;;4.00;4.00;;;;;19.41;50.08;101392.19;5078846;27;45435;-52
2022/06/28 08:07:42;;;;;;;;;2.67;2.67;;;;;19.48;50.66;101402.47;5079223;28;45455;-54
2022/06/28 08:10:08;;;;;;;;;1.33;1.00;;;;;19.57;50.55;101399.09;5078982;27;45520;-52
2022/06/28 08:12:34;;;;;;;;;3.33;2.00;;;;;19.63;49.93;101390.47;5079036;27;45181;-51
2022/06/28 08:14:59;;;;;;;;;3.00;1.33;;;;;19.70;50.21;101391.72;5078261;27;45218;-54
2022/06/28 08:17:24;;;;;;;;;5.00;2.67;;;;;19.77;49.55;101392.91;5073843;27;45276;-49
2022/06/28 08:19:50;;;;;;;;;2.00;2.00;;;;;19.78;49.48;101378.41;5078473;27;45306;-48
2022/06/28 08:22:15;;;;;;;;;2.00;2.00;;;;;19.88;49.59;101379.38;5084985;27;45453;-49
2022/06/28 08:24:41;;;;;;;;;0.67;0.67;;;;;20.03;49.35;101383.50;5075690;27;45351;-50
2022/06/28 08:27:06;;;;;;;;;1.67;1.67;;;;;20.20;49.00;101381.25;5072173;28;46005;-48
2022/06/28 08:29:33;;;;;;;;;2.67;2.00;;;;;20.50;48.38;101370.56;5073926;28;45369;-49
2022/06/28 08:31:59;;;;;;;;;3.67;2.00;;;;;21.10;46.96;101368.97;5074167;27;46461;-52
2022/06/28 08:34:24;;;;;;;;;3.33;2.33;;;;;21.66;45.07;101364.91;5082860;27;45559;-50
2022/06/28 08:36:50;;;;;;;;;3.67;2.00;;;;;22.16;45.11;101354.91;5098524;27;45580;-49
2022/06/28 08:39:16;;;;;;;;;5.00;2.00;;;;;22.75;44.05;101353.81;5085777;27;45424;-51
2022/06/28 08:41:42;;;;;;;;;3.75;2.00;;;;;23.30;42.30;101345.78;5077756;28;45429;-50
2022/06/28 08:44:11;;;;;;;;;2.00;2.00;;;;;23.76;39.71;101344.00;5077320;27;45516;-49
2022/06/28 08:46:37;;;;;;;;;2.50;2.50;;;;;24.32;38.51;101338.28;5057822;28;45282;-50
2022/06/28 08:49:36;;;;;;;;;2.25;1.00;;;;;24.81;37.44;101340.53;5077373;27;45405;-53
2022/06/28 08:52:03;;;;;;;;;2.75;1.00;;;;;25.15;36.06;101330.56;5059915;28;45423;-49
2022/06/28 08:54:30;;;;;;;;;1.00;1.00;;;;;25.58;37.12;101321.34;5078567;28;45605;-52
2022/06/28 08:56:55;;;;;;;;;3.75;2.25;;;;;26.10;38.71;101328.47;5071921;27;46323;-51
2022/06/28 08:59:22;;;;;;;;;1.00;1.00;;;;;26.58;35.80;101324.91;5071407;28;45370;-53
2022/06/28 09:01:49;;;;;;;;;1.00;1.00;;;;;26.98;33.27;101323.97;5077169;28;45262;-49
2022/06/28 09:04:15;;;;;;;;;1.00;1.00;;;;;27.36;32.26;101315.16;5078346;27;45540;-53
2022/06/28 09:06:40;;;;;;;;;2.75;2.00;;;;;27.53;33.65;101303.13;5077866;27;45404;-48
2022/06/28 09:09:06;;;;;;;;;1.00;1.00;;;;;27.93;32.82;101302.03;5077778;27;45396;-52
2022/06/28 09:11:39;;;;;;;;;2.00;1.00;;;;;28.34;32.56;101301.72;5076635;28;45430;-51
2022/06/28 09:14:23;;;;;;;;;1.00;1.00;;;;;28.84;34.51;101311.16;5077777;27;45511;-49
2022/06/28 09:16:49;;;;;;;;;1.00;1.00;;;;;29.11;28.39;101291.34;5077615;27;46448;-51
2022/06/28 09:19:14;;;;;;;;;2.75;1.00;;;;;29.30;31.82;101289.94;5077583;27;45914;-54
2022/06/28 09:21:44;;;;;;;;;1.00;1.00;;;;;29.68;32.23;101287.84;5077588;27;45453;-52
2022/06/28 09:24:09;;;;;;;;;1.00;1.00;;;;;30.05;28.18;101280.41;5077786;27;45545;-53
2022/06/28 09:26:35;;;;;;;;;1.00;1.00;;;;;30.22;30.89;101284.63;5076056;28;46928;-50
2022/06/28 09:29:00;;;;;;;;;2.00;1.00;;;;;30.43;28.14;101272.75;5077220;27;45495;-52
2022/06/28 09:31:30;;;;;;;;;0.75;0.75;;;;;30.60;28.46;101270.53;5077765;27;45334;-55
2022/06/28 09:34:05;;;;;;;;;1.00;1.00;;;;;30.79;27.08;101269.88;5077788;27;45416;-50
2022/06/28 09:36:36;;;;;;;;;2.33;1.33;;;;;30.64;30.04;101278.22;5076153;28;46380;-53
2022/06/28 09:39:14;;;;;;;;;2.40;1.80;;;;;30.89;29.11;101262.13;5077540;28;45550;-54
2022/06/28 09:41:44;;;;;;;;;2.20;1.00;;;;;31.35;29.14;101258.75;5076781;27;45363;-52
2022/06/28 09:44:09;;;;;;;;;3.80;2.00;;;;;31.60;28.92;101257.13;5077365;27;45326;-53
2022/06/28 09:46:35;;;;;;;;;2.25;2.00;;;;;31.74;26.30;101257.19;5076812;28;45797;-50
2022/06/28 09:49:05;;;;;;;;;0.75;0.75;;;;;31.82;24.29;101262.50;5076637;28;45338;-53
2022/06/28 09:51:33;;;;;;;;;1.00;1.00;;;;;31.80;25.20;101253.63;5076979;27;45739;-50
2022/06/28 09:54:04;;;;;;;;;1.00;1.00;;;;;31.89;26.40;101238.59;5077473;28;45406;-53
2022/06/28 09:56:34;;;;;;;;;2.00;0.80;;;;;31.91;27.87;101244.75;5077268;27;45393;-54
2022/06/28 09:59:00;;;;;;;;;2.20;2.20;;;;;32.21;26.86;101253.44;5075481;28;45288;-51
2022/06/28 10:01:26;;;;;;;;;2.00;2.00;;;;;32.17;26.15;101247.50;5075564;27;45320;-53
2022/06/28 10:03:56;;;;;;;;;1.75;1.75;;;;;32.28;26.18;101244.13;5077018;28;45264;-53
2022/06/28 10:06:22;;;;;;;;;1.60;1.00;;;;;32.14;26.73;101236.91;5076538;28;46471;-53
2022/06/28 10:08:48;;;;;;;;;1.50;1.00;;;;;32.44;27.35;101239.25;5076218;27;45476;-52
2022/06/28 10:11:14;;;;;;;;;1.80;1.80;;;;;32.56;25.34;101230.13;5073697;27;45487;-53
2022/06/28 10:16:46;;;;;;;;;1.00;1.00;;;;;32.42;25.59;101235.84;5076561;28;45856;-50
2022/06/28 10:19:16;;;;;;;;;1.20;1.00;;;;;32.45;23.17;101217.03;5087269;27;45483;-52
2022/06/28 10:22:12;;;;;;;;;1.40;1.00;;;;;32.38;26.11;101223.59;5072387;28;45394;-49
2022/06/28 10:24:55;;;;;;;;;1.00;1.00;;;;;32.09;23.90;101222.94;5056862;28;45351;-52
2022/06/28 10:27:21;;;;;;;;;1.00;1.00;;;;;31.69;23.28;101217.38;5074555;27;45407;-57
2022/06/28 10:29:59;;;;;;;;;1.00;1.00;;;;;31.44;26.86;101215.44;5075087;28;45420;-55
2022/06/28 10:32:41;;;;;;;;;1.60;1.60;;;;;31.48;26.37;101208.47;5075135;27;45415;-53
2022/06/28 10:35:06;;;;;;;;;0.80;0.80;;;;;31.35;25.68;101203.78;5075592;28;45409;-54
2022/06/28 10:37:32;;;;;;;;;0.75;0.75;;;;;30.87;26.81;101205.72;5073150;28;45673;-53
2022/06/28 10:40:22;;;;;;;;;2.20;2.00;;;;;30.25;26.48;101207.41;5075803;28;45483;-52
2022/06/28 10:42:52;;;;;;;;;2.00;2.00;;;;;29.82;26.98;101218.44;5076476;28;45273;-51
2022/06/28 10:45:21;;;;;;;;;2.80;1.00;;;;;29.26;26.30;101201.78;5073129;27;45431;-54
2022/06/28 10:48:09;;;;;;;;;5.00;3.80;;;;;28.77;28.39;101191.44;5074855;28;45383;-53
2022/06/28 10:50:56;;;;;;;;;1.20;0.60;;;;;28.44;29.34;101193.72;5076845;27;45438;-53
2022/06/28 10:53:23;;;;;;;;;2.00;2.00;;;;;27.96;29.56;101183.25;5076303;27;45406;-53
2022/06/28 10:56:31;;;;;;;;;1.60;1.60;;;;;27.55;29.46;101191.75;5076352;27;45334;-54
2022/06/28 10:59:02;;;;;;;;;3.40;1.60;;;;;27.30;28.50;101191.94;5033271;28;46062;-50
2022/06/28 11:01:40;;;;;;;;;2.00;2.00;;;;;26.98;31.46;101192.94;5030622;28;45450;-50
2022/06/28 11:04:23;;;;;;;;;1.00;1.00;;;;;26.83;30.81;101189.28;5049619;28;45503;-50
2022/06/28 11:06:58;;;;;;;;;3.00;1.80;;;;;26.71;29.46;101182.50;5074988;27;45523;-51
2022/06/28 11:10:03;;;;;;;;;3.80;2.20;;;;;26.55;30.50;101180.66;5075875;28;45260;-50
2022/06/28 11:12:28;;;;;;;;;2.00;2.00;;;;;26.44;29.58;101184.63;5073470;27;45349;-52
2022/06/28 11:15:10;;;;;;;;;1.25;1.25;;;;;26.30;31.58;101166.22;5070635;27;45690;-53
2022/06/28 11:17:42;;;;;;;;;1.00;1.00;;;;;26.12;30.60;101173.75;5071842;28;46235;-53
2022/06/28 11:20:14;;;;;;;;;1.80;1.80;;;;;26.14;31.44;101156.19;5069136;27;45303;-53
2022/06/28 11:22:44;;;;;;;;;1.80;1.80;;;;;26.14;31.49;101166.25;5075933;27;45350;-52
2022/06/28 11:25:12;;;;;;;;;5.00;2.00;;;;;26.15;28.99;101173.41;5075769;27;45496;-57
2022/06/28 11:27:55;;;;;;;;;3.00;1.75;;;;;26.15;29.29;101165.22;5076033;27;45574;-51
2022/06/28 11:30:29;;;;;;;;;2.50;1.00;;;;;26.21;31.22;101174.59;5075438;27;46307;-49
2022/06/28 11:32:57;;;;;;;;;2.60;2.00;;;;;26.15;29.65;101167.94;5075195;27;45570;-54
2022/06/28 11:35:25;;;;;;;;;1.00;1.00;;;;;26.14;29.21;101172.56;5090872;27;45479;-50
2022/06/28 11:38:03;;;;;;;;;2.00;2.00;;;;;26.10;28.83;101160.31;5071796;28;45679;-55
2022/06/28 11:40:39;;;;;;;;;1.60;1.60;;;;;26.11;29.93;101161.16;5071850;27;46265;-53